createdAt,value
2023-01-17T00:02:23.090Z,4.50
2023-01-17T00:05:09.572Z,7.80
2023-01-17T00:07:55.956Z,6.80
2023-01-17T00:10:26.152Z,5.90
2023-01-17T00:12:59.657Z,6.90
2023-01-17T00:15:29.349Z,7.60
2023-01-17T00:17:57.435Z,6.20
2023-01-17T00:20:49.681Z,7.10
2023-01-17T00:23:42.797Z,8.60
2023-01-17T00:26:14.682Z,8.30
2023-01-17T00:28:43.823Z,7.80
2023-01-17T00:31:13.940Z,11.30
2023-01-17T00:33:41.820Z,7.50
2023-01-17T00:36:10.922Z,7.10
2023-01-17T00:38:41.037Z,7.30
2023-01-17T00:41:11.832Z,6.00
2023-01-17T00:43:58.643Z,8.20
2023-01-17T00:46:45.243Z,5.60
2023-01-17T00:49:31.370Z,6.00
2023-01-17T00:52:17.912Z,7.60
2023-01-17T00:55:04.196Z,7.00
2023-01-17T00:57:50.547Z,6.20
2023-01-17T01:00:37.437Z,7.70
2023-01-17T01:03:29.025Z,4.80
2023-01-17T01:06:15.760Z,7.20
2023-01-17T01:09:02.253Z,3.10
2023-01-17T01:11:48.779Z,5.90
2023-01-17T01:14:35.333Z,9.70
2023-01-17T01:17:21.913Z,8.50
2023-01-17T01:20:08.024Z,9.50
2023-01-17T01:22:54.239Z,8.70
2023-01-17T01:25:40.852Z,7.30
2023-01-17T01:28:32.243Z,6.30
2023-01-17T01:31:20.343Z,9.30
2023-01-17T01:33:48.325Z,8.40
2023-01-17T01:36:15.997Z,10.70
2023-01-17T01:38:43.752Z,9.10
2023-01-17T01:41:11.439Z,8.50
2023-01-17T01:43:45.171Z,9.50
2023-01-17T01:46:38.045Z,8.50
2023-01-17T01:49:18.936Z,9.60
2023-01-17T01:51:52.536Z,7.70
2023-01-17T01:54:23.901Z,8.70
2023-01-17T01:56:53.438Z,10.60
2023-01-17T01:59:22.679Z,9.60
2023-01-17T02:01:53.036Z,10.50
2023-01-17T02:04:22.646Z,7.60
2023-01-17T02:06:59.078Z,11.00
2023-01-17T02:09:27.675Z,8.50
2023-01-17T02:11:55.616Z,7.60
2023-01-17T02:14:23.304Z,9.70
2023-01-17T02:17:03.922Z,6.40
2023-01-17T02:19:50.344Z,11.00
2023-01-17T02:22:26.924Z,8.70
2023-01-17T02:25:16.436Z,9.10
2023-01-17T02:28:06.669Z,8.40
2023-01-17T02:30:39.434Z,10.40
2023-01-17T02:33:19.207Z,6.90
2023-01-17T02:36:04.224Z,7.50
2023-01-17T02:38:44.177Z,9.30
2023-01-17T02:41:36.921Z,11.40
2023-01-17T02:44:05.034Z,10.70
2023-01-17T02:46:32.691Z,8.60
2023-01-17T02:49:00.679Z,9.90
2023-01-17T02:51:38.916Z,13.10
2023-01-17T02:54:23.952Z,9.10
2023-01-17T02:57:10.022Z,8.00
2023-01-17T03:00:01.323Z,11.80
2023-01-17T03:02:38.005Z,11.00
2023-01-17T03:05:22.884Z,8.30
2023-01-17T03:07:52.145Z,8.20
2023-01-17T03:10:21.007Z,12.20
2023-01-17T03:12:48.681Z,8.80
2023-01-17T03:15:20.330Z,10.80
2023-01-17T03:17:50.767Z,9.40
2023-01-17T03:20:18.731Z,9.00
2023-01-17T03:22:47.134Z,10.80
2023-01-17T03:25:14.829Z,10.70
2023-01-17T03:27:42.512Z,9.20
2023-01-17T03:30:10.814Z,11.60
2023-01-17T03:32:38.568Z,10.00
2023-01-17T03:35:06.785Z,10.00
2023-01-17T03:37:34.541Z,10.50
2023-01-17T03:40:02.206Z,9.50
2023-01-17T03:42:29.886Z,9.70
2023-01-17T03:44:57.633Z,10.90
2023-01-17T03:47:25.316Z,10.40
2023-01-17T03:49:52.952Z,11.50
2023-01-17T03:52:20.693Z,9.40
2023-01-17T03:54:48.515Z,8.80
2023-01-17T03:57:16.161Z,10.50
2023-01-17T03:59:43.824Z,6.70
2023-01-17T04:02:12.366Z,12.20
2023-01-17T04:04:40.296Z,8.00
2023-01-17T04:07:07.940Z,9.90
2023-01-17T04:09:35.665Z,9.10
2023-01-17T04:12:03.667Z,11.30
2023-01-17T04:14:31.368Z,9.90
2023-01-17T04:16:59.917Z,14.30
2023-01-17T04:19:27.675Z,12.80
2023-01-17T04:21:55.389Z,9.70
2023-01-17T04:24:23.136Z,12.10
2023-01-17T04:26:50.858Z,8.30
2023-01-17T04:29:18.575Z,12.70
2023-01-17T04:31:47.666Z,12.10
2023-01-17T04:34:15.323Z,10.80
2023-01-17T04:36:42.981Z,10.80
2023-01-17T04:39:10.675Z,11.00
2023-01-17T04:41:38.578Z,12.80
2023-01-17T04:44:06.326Z,9.10
2023-01-17T04:46:34.235Z,10.60
2023-01-17T04:49:01.974Z,11.60
2023-01-17T04:51:29.779Z,12.90
2023-01-17T04:53:57.492Z,10.20
2023-01-17T04:56:25.161Z,11.40
2023-01-17T04:58:52.855Z,12.20
2023-01-17T05:01:20.684Z,12.60
2023-01-17T05:03:48.434Z,10.80
2023-01-17T05:06:16.116Z,9.90
2023-01-17T05:08:43.891Z,9.10
2023-01-17T05:11:11.529Z,10.40
2023-01-17T05:13:39.246Z,12.20
2023-01-17T05:16:07.175Z,11.30
2023-01-17T05:18:34.888Z,10.70
2023-01-17T05:21:03.380Z,13.30
2023-01-17T05:23:31.196Z,16.20
2023-01-17T05:25:59.404Z,9.40
2023-01-17T05:28:27.161Z,10.80
2023-01-17T05:30:54.870Z,12.90
2023-01-17T05:33:22.553Z,10.80
2023-01-17T05:35:50.579Z,9.90
2023-01-17T05:38:18.356Z,10.20
2023-01-17T05:40:46.089Z,12.70
2023-01-17T05:43:13.802Z,10.10
2023-01-17T05:45:41.559Z,10.90
2023-01-17T05:48:09.534Z,7.10
2023-01-17T05:50:38.181Z,12.30
2023-01-17T05:53:09.092Z,8.00
2023-01-17T05:55:37.932Z,9.50
2023-01-17T05:58:07.075Z,8.60
2023-01-17T06:00:35.056Z,8.70
2023-01-17T06:03:02.726Z,10.40
2023-01-17T06:05:30.799Z,13.60
2023-01-17T06:07:58.580Z,6.30
2023-01-17T06:10:27.006Z,10.20
2023-01-17T06:13:09.733Z,12.90
2023-01-17T06:15:38.838Z,15.70
2023-01-17T06:18:11.223Z,16.40
2023-01-17T06:20:39.645Z,6.90
2023-01-17T06:23:11.228Z,12.70
2023-01-17T06:25:40.988Z,12.40
2023-01-17T06:30:36.495Z,14.20
2023-01-17T06:33:05.006Z,12.10
2023-01-17T06:35:33.337Z,14.10
2023-01-17T06:38:01.056Z,15.10
2023-01-17T06:40:29.252Z,9.80
2023-01-17T06:43:01.813Z,9.00
2023-01-17T06:45:31.842Z,10.10
2023-01-17T06:48:04.148Z,10.00
2023-01-17T06:50:32.685Z,8.50
2023-01-17T06:53:02.816Z,7.00
2023-01-17T06:55:33.726Z,9.70
2023-01-17T06:58:03.094Z,7.90
2023-01-17T07:00:35.168Z,9.70
2023-01-17T07:03:03.352Z,8.90
2023-01-17T07:05:31.127Z,10.40
2023-01-17T07:07:58.851Z,10.40
2023-01-17T07:10:26.491Z,8.70
2023-01-17T07:12:59.702Z,10.90
2023-01-17T07:15:27.859Z,8.10
2023-01-17T07:17:55.590Z,9.90
2023-01-17T07:20:23.232Z,6.90
2023-01-17T07:22:50.891Z,9.70
2023-01-17T07:25:20.121Z,7.70
2023-01-17T07:27:47.916Z,10.10
2023-01-17T07:30:16.061Z,10.20
2023-01-17T07:32:43.735Z,15.60
2023-01-17T07:35:11.396Z,11.80
2023-01-17T07:37:39.216Z,18.00
2023-01-17T07:40:07.284Z,12.60
2023-01-17T07:42:34.911Z,18.90
2023-01-17T07:45:02.659Z,10.30
2023-01-17T07:47:30.357Z,10.80
2023-01-17T07:49:58.177Z,10.90
2023-01-17T07:52:25.882Z,9.30
2023-01-17T07:54:53.752Z,10.20
2023-01-17T07:57:21.577Z,10.50
2023-01-17T07:59:52.620Z,13.40
2023-01-17T08:02:22.324Z,10.10
2023-01-17T08:04:50.155Z,9.60
2023-01-17T08:07:17.905Z,8.80
2023-01-17T08:09:49.563Z,8.30
2023-01-17T08:12:17.609Z,8.10
2023-01-17T08:14:45.301Z,9.90
2023-01-17T08:17:16.644Z,6.10
2023-01-17T08:19:44.931Z,7.80
2023-01-17T08:22:12.689Z,6.00
2023-01-17T08:24:40.499Z,4.90
2023-01-17T08:27:09.109Z,9.40
2023-01-17T08:29:37.172Z,4.10
2023-01-17T08:32:05.009Z,7.00
2023-01-17T08:34:33.409Z,7.00
2023-01-17T08:37:01.093Z,8.50
2023-01-17T08:39:28.828Z,7.90
2023-01-17T08:41:57.404Z,8.40
2023-01-17T08:44:25.166Z,6.90
2023-01-17T08:46:52.961Z,7.20
2023-01-17T08:49:20.657Z,6.10
2023-01-17T08:51:48.411Z,6.40
2023-01-17T08:54:16.702Z,4.50
2023-01-17T08:56:44.511Z,7.50
2023-01-17T08:59:12.572Z,9.10
2023-01-17T09:01:46.101Z,8.90
2023-01-17T09:04:14.429Z,6.00
2023-01-17T09:06:45.420Z,4.90
2023-01-17T09:09:13.725Z,6.20
2023-01-17T09:11:41.627Z,5.80
2023-01-17T09:14:12.542Z,7.60
2023-01-17T09:16:40.638Z,4.60
2023-01-17T09:19:09.085Z,6.10
2023-01-17T09:21:36.777Z,4.80
2023-01-17T09:24:04.513Z,6.50
2023-01-17T09:26:32.311Z,7.90
2023-01-17T09:29:00.160Z,5.30
2023-01-17T09:31:27.873Z,6.10
2023-01-17T09:33:57.210Z,6.80
2023-01-17T09:36:28.893Z,6.60
2023-01-17T09:38:58.168Z,7.10
2023-01-17T09:41:35.227Z,5.10
2023-01-17T09:44:08.209Z,7.90
2023-01-17T09:46:42.837Z,6.60
2023-01-17T09:49:39.358Z,6.80
2023-01-17T09:52:10.259Z,7.20
2023-01-17T10:06:19.210Z,8.10
2023-01-17T10:09:02.932Z,7.70
2023-01-17T10:12:10.899Z,7.50
2023-01-17T10:15:02.311Z,6.40
2023-01-17T10:17:35.765Z,6.70
2023-01-17T10:20:39.146Z,7.60
2023-01-17T10:23:24.580Z,6.80
2023-01-17T10:25:52.748Z,5.30
2023-01-17T10:28:30.987Z,5.60
2023-01-17T10:31:03.459Z,6.90
2023-01-17T10:33:47.092Z,3.50
2023-01-17T10:36:21.192Z,7.90
2023-01-17T10:38:51.701Z,6.40
2023-01-17T10:41:57.318Z,7.40
2023-01-17T10:44:29.582Z,5.70
2023-01-17T10:46:58.807Z,6.30
2023-01-17T10:49:27.643Z,7.70
2023-01-17T10:52:02.969Z,7.10
2023-01-17T10:55:07.983Z,6.10
2023-01-17T10:57:41.069Z,7.40
2023-01-17T11:00:45.694Z,6.70
2023-01-17T11:03:15.343Z,8.10
2023-01-17T11:08:13.995Z,5.20
2023-01-17T11:10:46.480Z,6.20
2023-01-17T11:13:39.641Z,6.60
2023-01-17T11:16:09.660Z,7.60
2023-01-17T11:18:38.880Z,7.70
2023-01-17T11:21:11.356Z,8.20
2023-01-17T11:23:44.434Z,7.50
2023-01-17T11:26:22.282Z,5.20
2023-01-17T11:28:48.575Z,8.30
2023-01-17T11:31:15.845Z,8.40
2023-01-17T11:33:47.647Z,7.90
2023-01-17T11:36:21.640Z,7.80
2023-01-17T11:39:02.073Z,7.70
2023-01-17T11:41:39.909Z,7.70
2023-01-17T11:44:34.646Z,6.70
2023-01-17T11:47:13.233Z,9.30
2023-01-17T11:49:41.515Z,6.50
2023-01-17T11:52:20.467Z,6.90
2023-01-17T11:54:47.838Z,5.50
2023-01-17T11:57:27.488Z,6.60
2023-01-17T12:00:18.614Z,10.90
2023-01-17T12:03:20.000Z,7.60
2023-01-17T12:06:07.260Z,8.60
2023-01-17T12:08:44.336Z,11.60
2023-01-17T12:11:25.202Z,7.70
2023-01-17T12:14:00.635Z,12.40
2023-01-17T12:17:03.893Z,10.50
2023-01-17T12:20:00.154Z,8.60
2023-01-17T12:22:38.504Z,10.00
2023-01-17T12:25:24.087Z,7.30
2023-01-17T12:28:45.542Z,8.90
2023-01-17T12:31:32.719Z,6.30
2023-01-17T12:34:17.830Z,7.50
2023-01-17T12:36:56.895Z,8.90
2023-01-17T12:39:32.435Z,5.80
2023-01-17T12:42:20.561Z,7.80
2023-01-17T12:44:57.106Z,6.60
2023-01-17T12:47:23.803Z,7.10
2023-01-17T12:50:22.002Z,8.40
2023-01-17T12:52:54.313Z,8.30
2023-01-17T12:55:51.187Z,7.00
2023-01-17T12:58:28.644Z,8.70
2023-01-17T13:01:06.698Z,10.50
2023-01-17T13:04:02.564Z,10.60
2023-01-17T13:06:57.619Z,7.90
2023-01-17T13:09:24.147Z,7.80
2023-01-17T13:12:02.611Z,8.00
2023-01-17T13:14:28.968Z,7.30
2023-01-17T13:16:59.709Z,8.70
2023-01-17T13:19:54.060Z,5.80
2023-01-17T13:22:23.399Z,6.80
2023-01-17T13:25:14.325Z,11.40
2023-01-17T13:28:06.329Z,7.60
2023-01-17T13:30:49.008Z,8.00
2023-01-17T13:33:34.158Z,6.80
2023-01-17T13:36:09.359Z,5.10
2023-01-17T13:38:56.817Z,7.00
2023-01-17T13:41:54.130Z,8.10
2023-01-17T13:44:26.930Z,9.30
2023-01-17T13:47:03.527Z,6.10
2023-01-17T13:49:33.433Z,6.90
2023-01-17T13:52:20.119Z,6.10
2023-01-17T13:54:49.136Z,7.90
2023-01-17T13:57:39.338Z,6.50
2023-01-17T14:00:15.733Z,6.40
2023-01-17T14:02:42.931Z,5.60
2023-01-17T14:05:17.763Z,5.40
2023-01-17T14:07:47.197Z,7.60
2023-01-17T14:10:33.724Z,7.00
2023-01-17T14:13:00.668Z,7.50
2023-01-17T14:15:30.571Z,6.70
2023-01-17T14:18:04.098Z,5.70
2023-01-17T14:20:39.587Z,4.90
2023-01-17T14:23:27.475Z,5.60
2023-01-17T14:25:58.592Z,6.50
2023-01-17T14:28:28.715Z,5.70
2023-01-17T14:30:57.423Z,8.50
2023-01-17T14:33:34.096Z,6.30
2023-01-17T14:36:04.147Z,5.40
2023-01-17T14:38:32.928Z,5.90
2023-01-17T14:41:21.045Z,5.80
2023-01-17T14:43:49.789Z,6.00
2023-01-17T14:46:23.268Z,6.30
2023-01-17T14:48:51.726Z,6.80
2023-01-17T14:51:24.119Z,6.50
2023-01-17T14:54:02.436Z,6.50
2023-01-17T14:56:30.708Z,5.90
2023-01-17T14:59:20.418Z,6.00
2023-01-17T15:02:07.205Z,7.40
2023-01-17T15:04:38.346Z,5.90
2023-01-17T15:07:04.685Z,7.90
2023-01-17T15:09:36.596Z,8.20
2023-01-17T15:12:03.576Z,8.40
2023-01-17T15:14:37.357Z,10.70
2023-01-17T15:17:25.687Z,10.50
2023-01-17T15:22:29.546Z,10.90
2023-01-17T15:24:57.827Z,9.10
2023-01-17T15:27:24.907Z,11.80
2023-01-17T15:29:51.686Z,9.30
2023-01-17T15:32:24.065Z,11.20
2023-01-17T15:34:51.879Z,11.30
2023-01-17T15:37:39.898Z,12.50
2023-01-17T15:40:19.067Z,10.10
2023-01-17T15:42:55.951Z,10.40
2023-01-17T15:45:27.555Z,11.50
2023-01-17T15:47:54.069Z,10.30
2023-01-17T15:50:25.105Z,9.00
2023-01-17T15:52:52.927Z,9.30
2023-01-17T15:55:39.989Z,9.40
2023-01-17T15:58:26.989Z,10.00
2023-01-17T16:00:54.224Z,12.10
2023-01-17T16:03:31.064Z,11.90
2023-01-17T16:05:59.792Z,11.80
2023-01-17T16:08:38.478Z,12.10
2023-01-17T16:11:06.635Z,11.70
2023-01-17T16:13:37.867Z,14.90
2023-01-17T16:16:20.564Z,10.70
2023-01-17T16:18:48.267Z,13.80
2023-01-17T16:21:19.123Z,10.90
2023-01-17T16:23:45.849Z,10.40
2023-01-17T16:26:12.241Z,11.20
2023-01-17T16:28:38.577Z,9.90
2023-01-17T16:31:05.334Z,11.60
2023-01-17T16:33:31.956Z,8.90
2023-01-17T16:35:58.245Z,12.60
2023-01-17T16:38:24.666Z,39.90
2023-01-17T16:40:51.247Z,21.00
2023-01-17T16:43:18.742Z,20.70
2023-01-17T16:45:49.812Z,18.10
2023-01-17T16:48:18.967Z,16.20
2023-01-17T16:50:49.763Z,20.80
2023-01-17T16:53:20.906Z,16.50
2023-01-17T16:55:50.283Z,32.80
2023-01-17T16:58:17.279Z,34.30
2023-01-17T17:00:43.564Z,42.80
2023-01-17T17:03:16.068Z,28.80
2023-01-17T17:05:44.369Z,36.50
2023-01-17T17:08:10.949Z,36.30
2023-01-17T17:10:37.276Z,31.70
2023-01-17T17:13:03.763Z,34.70
2023-01-17T17:15:30.166Z,30.20
2023-01-17T17:17:56.553Z,24.30
2023-01-17T17:20:25.082Z,25.90
2023-01-17T17:22:51.730Z,23.00
2023-01-17T17:25:18.640Z,28.90
2023-01-17T17:27:45.139Z,64.50
2023-01-17T17:30:12.057Z,35.80
2023-01-17T17:32:38.546Z,26.70
2023-01-17T17:35:05.704Z,32.00
2023-01-17T17:37:31.975Z,42.60
2023-01-17T17:39:58.332Z,32.60
2023-01-17T17:42:24.960Z,30.70
2023-01-17T17:44:51.553Z,29.00
2023-01-17T17:47:17.825Z,27.90
2023-01-17T17:49:44.162Z,27.40
2023-01-17T17:52:10.555Z,36.30
2023-01-17T17:54:36.861Z,26.80
2023-01-17T17:57:03.510Z,35.20
2023-01-17T17:59:30.590Z,44.50
2023-01-17T18:01:59.052Z,43.10
2023-01-17T18:04:26.340Z,30.80
2023-01-17T18:06:56.882Z,27.50
2023-01-17T18:09:23.463Z,23.70
2023-01-17T18:11:49.757Z,29.40
2023-01-17T18:14:17.005Z,35.80
2023-01-17T18:16:44.085Z,35.80
2023-01-17T18:19:16.712Z,29.00
2023-01-17T18:21:43.492Z,30.20
2023-01-17T18:24:12.218Z,26.50
2023-01-17T18:26:47.590Z,29.10
2023-01-17T18:29:15.858Z,34.00
2023-01-17T18:31:43.551Z,37.50
2023-01-17T18:34:13.352Z,35.60
2023-01-17T18:36:40.274Z,39.40
2023-01-17T18:39:12.938Z,31.90
2023-01-17T18:41:39.251Z,33.00
2023-01-17T18:44:06.568Z,33.30
2023-01-17T18:46:34.208Z,26.10
2023-01-17T18:49:00.637Z,38.40
2023-01-17T18:51:29.263Z,34.00
2023-01-17T18:53:55.704Z,32.00
2023-01-17T18:56:22.493Z,36.40
2023-01-17T18:58:50.239Z,26.30
2023-01-17T19:01:21.983Z,31.30
2023-01-17T19:03:50.728Z,29.10
2023-01-17T19:06:20.254Z,31.60
2023-01-17T19:08:48.543Z,25.10
2023-01-17T19:11:14.897Z,21.20
2023-01-17T19:13:41.342Z,33.60
2023-01-17T19:16:12.865Z,26.60
2023-01-17T19:18:39.271Z,18.20
2023-01-17T19:21:11.692Z,28.10
2023-01-17T19:23:38.797Z,41.10
2023-01-17T19:26:07.894Z,31.70
2023-01-17T19:28:41.790Z,38.40
2023-01-17T19:31:14.668Z,29.30
2023-01-17T19:33:43.237Z,26.20
2023-01-17T19:36:15.395Z,37.00
2023-01-17T19:38:49.440Z,21.50
2023-01-17T19:41:26.052Z,25.60
2023-01-17T19:44:05.755Z,30.10
2023-01-17T19:46:33.042Z,35.40
2023-01-17T19:48:59.811Z,28.70
2023-01-17T19:51:27.381Z,22.70
2023-01-17T19:53:55.841Z,33.00
2023-01-17T19:56:24.658Z,24.00
2023-01-17T19:58:51.664Z,20.80
2023-01-17T20:01:25.921Z,24.50
2023-01-17T20:03:52.712Z,22.10
2023-01-17T20:06:22.114Z,15.90
2023-01-17T20:08:48.909Z,44.70
2023-01-17T20:11:19.022Z,59.70
2023-01-17T20:13:47.148Z,69.00
2023-01-17T20:16:15.961Z,73.00
2023-01-17T20:18:43.466Z,64.70
2023-01-17T20:21:16.423Z,62.70
2023-01-17T20:23:43.879Z,53.60
2023-01-17T20:26:11.183Z,40.20
2023-01-17T20:28:39.824Z,34.80
2023-01-17T20:31:11.987Z,33.40
2023-01-17T20:33:39.515Z,26.40
2023-01-17T20:36:10.915Z,25.80
2023-01-17T20:38:44.582Z,27.80
2023-01-17T20:41:13.800Z,25.80
2023-01-17T20:43:41.900Z,29.80
2023-01-17T20:46:08.992Z,45.30
2023-01-17T20:48:37.106Z,40.70
2023-01-17T20:51:11.073Z,59.30
2023-01-17T20:53:39.328Z,76.60
2023-01-17T20:56:08.152Z,53.50
2023-01-17T20:58:34.771Z,27.90
2023-01-17T21:01:01.404Z,27.70
2023-01-17T21:03:28.532Z,25.90
2023-01-17T21:06:03.840Z,31.80
2023-01-17T21:08:32.509Z,31.30
2023-01-17T21:10:59.078Z,33.30
2023-01-17T21:13:25.853Z,31.90
2023-01-17T21:15:53.043Z,30.10
2023-01-17T21:18:21.153Z,34.10
2023-01-17T21:20:48.137Z,34.20
2023-01-17T21:23:18.066Z,32.80
2023-01-17T21:25:55.682Z,33.70
2023-01-17T21:28:24.169Z,28.10
2023-01-17T21:30:51.394Z,26.90
2023-01-17T21:33:19.228Z,27.60
2023-01-17T21:35:46.031Z,27.40
2023-01-17T21:38:13.627Z,25.70
2023-01-17T21:40:40.609Z,30.00
2023-01-17T21:43:07.273Z,26.40
2023-01-17T21:45:37.870Z,31.10
2023-01-17T21:48:06.047Z,30.50
2023-01-17T21:50:33.837Z,23.10
2023-01-17T21:53:00.245Z,12.50
2023-01-17T21:55:45.769Z,22.10
2023-01-17T21:58:46.621Z,15.90
2023-01-17T22:01:21.659Z,36.30
2023-01-17T22:03:55.081Z,28.00
2023-01-17T22:06:23.802Z,29.40
2023-01-17T22:08:50.181Z,30.70
2023-01-17T22:11:19.591Z,28.90
2023-01-17T22:13:46.690Z,36.90
2023-01-17T22:16:15.110Z,36.90
2023-01-17T22:18:42.759Z,36.30
2023-01-17T22:21:19.268Z,38.10
2023-01-17T22:23:57.251Z,33.80
2023-01-17T22:26:28.916Z,56.10
2023-01-17T22:28:58.498Z,49.10
2023-01-17T22:31:27.200Z,56.80
2023-01-17T22:33:56.430Z,64.00
2023-01-17T22:36:25.707Z,49.00
2023-01-17T22:38:52.037Z,48.20
2023-01-17T22:41:21.571Z,47.40
2023-01-17T22:43:52.552Z,39.20
2023-01-17T22:46:21.916Z,69.90
2023-01-17T22:48:48.649Z,83.10
2023-01-17T22:51:17.233Z,68.00
2023-01-17T22:53:54.770Z,58.30
2023-01-17T22:56:32.275Z,73.80
2023-01-17T22:59:03.228Z,41.50
2023-01-17T23:01:32.070Z,49.20
2023-01-17T23:04:01.355Z,50.70
2023-01-17T23:06:30.269Z,39.00
2023-01-17T23:08:58.958Z,44.60
2023-01-17T23:11:40.105Z,44.40
2023-01-17T23:14:21.866Z,56.40
2023-01-17T23:17:06.600Z,45.00
2023-01-17T23:19:35.425Z,37.90
2023-01-17T23:22:16.065Z,45.20
2023-01-17T23:24:46.734Z,38.20
2023-01-17T23:27:51.395Z,69.70
2023-01-17T23:30:18.615Z,68.90
2023-01-17T23:32:48.133Z,44.90
2023-01-17T23:35:15.996Z,47.10
2023-01-17T23:38:00.866Z,39.10
2023-01-17T23:40:27.636Z,39.60
2023-01-17T23:43:12.999Z,34.80
2023-01-17T23:45:39.731Z,27.20
2023-01-17T23:48:10.874Z,39.50
2023-01-17T23:50:39.512Z,52.60
2023-01-17T23:53:06.536Z,46.90
2023-01-17T23:55:38.898Z,45.30
2023-01-17T23:58:07.735Z,43.50
